Time;durP1;ratioP1;P1;durP2;ratioP2;P2;SDS_P1;SDS_P2;PMS_P1;PMS_P2;Temp;Humidity;BMP_temperature;BMP_pressure;BME280_temperature;BME280_humidity;BME280_pressure;Samples;Min_cycle;Max_cycle;Signal;HPM_P1;HPM_P2
2022/12/15 00:40:38;;;;;;;18.30;8.90;;;-2.80;99.90;;;;;;5077965;28;20243;-54
2022/12/15 00:43:05;;;;;;;15.53;8.63;;;-3.00;99.90;;;;;;5080816;28;20195;-56
2022/12/15 00:48:17;;;;;;;14.37;8.63;;;-3.10;99.90;;;;;;5081112;28;20209;-54
2022/12/15 00:50:53;;;;;;;13.33;7.97;;;-3.10;99.90;;;;;;5080799;28;20303;-54
2022/12/15 01:21:04;;;;;;;14.37;8.40;;;-3.00;61.70;;;;;;5079427;28;20238;-54
2022/12/15 01:23:31;;;;;;;14.17;8.37;;;-3.10;99.90;;;;;;5081191;28;20282;-54
2022/12/15 01:25:59;;;;;;;15.10;9.37;;;-3.10;99.90;;;;;;5080761;28;20320;-59
2022/12/15 01:28:26;;;;;;;15.83;9.23;;;-3.00;99.90;;;;;;5078976;28;20203;-55
2022/12/15 01:30:53;;;;;;;14.93;8.63;;;-3.00;99.90;;;;;;5080445;28;20550;-55
2022/12/15 01:33:21;;;;;;;15.63;7.50;;;-3.10;99.90;;;;;;5082039;28;20519;-54
2022/12/15 01:35:56;;;;;;;15.30;9.00;;;-3.10;99.90;;;;;;5080991;28;20269;-54
2022/12/15 01:38:23;;;;;;;18.87;9.87;;;-3.10;99.90;;;;;;5079847;28;20305;-54
2022/12/15 01:40:53;;;;;;;13.07;8.03;;;-2.90;99.90;;;;;;5080110;28;20211;-56
2022/12/15 01:43:26;;;;;;;15.00;8.73;;;-3.00;99.90;;;;;;5080200;28;20293;-59
2022/12/15 01:46:05;;;;;;;14.03;8.73;;;-3.00;99.90;;;;;;5081145;28;20278;-57
2022/12/15 01:48:40;;;;;;;13.70;8.70;;;-2.80;99.90;;;;;;5079734;28;20199;-54
2022/12/15 01:51:32;;;;;;;13.17;8.50;;;-2.60;22.60;;;;;;5079781;28;20738;-55
2022/12/15 01:54:02;;;;;;;13.57;8.70;;;-2.80;72.90;;;;;;5080334;28;20195;-54
2022/12/15 01:56:33;;;;;;;13.47;8.50;;;-3.00;99.90;;;;;;5080725;28;20245;-54
2022/12/15 01:59:07;;;;;;;15.93;9.33;;;-3.10;99.90;;;;;;5079937;28;20233;-54
2022/12/15 02:01:34;;;;;;;19.30;9.63;;;-3.00;99.90;;;;;;5079631;28;20203;-55
2022/12/15 02:04:01;;;;;;;15.97;9.67;;;-3.20;99.90;;;;;;5081086;28;20204;-56
2022/12/15 02:06:28;;;;;;;19.30;9.77;;;-3.30;1.00;;;;;;5079194;28;20204;-58
2022/12/15 02:08:58;;;;;;;14.43;8.80;;;-3.20;1.00;;;;;;5078230;28;20682;-55
2022/12/15 02:11:38;;;;;;;14.77;9.70;;;-3.00;1.00;;;;;;5078204;28;20223;-55
2022/12/15 02:14:08;;;;;;;18.13;9.80;;;-2.90;99.90;;;;;;5075358;28;20727;-55
2022/12/15 02:16:56;;;;;;;22.40;10.13;;;-3.00;99.90;;;;;;5078129;28;20310;-54
2022/12/15 02:19:41;;;;;;;15.13;9.70;;;-3.00;99.90;;;;;;5078295;28;20202;-54
2022/12/15 02:22:26;;;;;;;15.10;8.83;;;-2.90;99.90;;;;;;5078478;28;20334;-53
2022/12/15 02:24:59;;;;;;;16.07;9.27;;;-2.90;99.90;;;;;;5078257;28;20200;-56
2022/12/15 02:27:33;;;;;;;18.43;10.03;;;-3.00;99.90;;;;;;5077758;28;20290;-56
2022/12/15 02:30:28;;;;;;;14.77;9.07;;;-3.00;99.90;;;;;;5080891;28;20306;-56
2022/12/15 02:33:18;;;;;;;15.50;9.60;;;-3.10;99.90;;;;;;5080228;28;20608;-54
2022/12/15 02:36:17;;;;;;;17.47;9.37;;;-3.10;1.00;;;;;;5079450;28;20202;-54
2022/12/15 02:38:43;;;;;;;17.77;10.40;;;-3.10;99.90;;;;;;5079918;28;20209;-56
2022/12/15 02:41:29;;;;;;;15.67;10.77;;;-2.90;1.00;;;;;;5061782;28;20222;-56
2022/12/15 02:43:56;;;;;;;18.60;10.77;;;-2.80;99.90;;;;;;5078695;28;20605;-55
2022/12/15 02:46:39;;;;;;;18.47;10.00;;;-2.90;99.90;;;;;;5060802;28;20294;-61
2022/12/15 02:49:13;;;;;;;15.70;9.53;;;-3.00;99.90;;;;;;5061488;28;20589;-56
2022/12/15 02:52:04;;;;;;;17.23;9.30;;;-3.00;99.90;;;;;;5061338;28;20210;-54
2022/12/15 02:55:01;;;;;;;16.93;9.73;;;-3.00;99.90;;;;;;5080234;28;20203;-55
2022/12/15 02:57:58;;;;;;;20.13;10.13;;;-3.10;99.90;;;;;;5078457;28;20299;-54
2022/12/15 03:00:27;;;;;;;18.07;9.63;;;-2.80;99.90;;;;;;5068309;28;20650;-60
2022/12/15 03:02:54;;;;;;;14.93;9.57;;;-2.90;99.90;;;;;;5061278;28;20613;-56
2022/12/15 03:05:23;;;;;;;20.77;10.50;;;-2.80;99.90;;;;;;5077877;28;20215;-57
2022/12/15 03:07:53;;;;;;;16.83;10.23;;;-2.80;99.90;;;;;;5075712;28;20219;-55
2022/12/15 03:10:23;;;;;;;18.87;10.60;;;-3.10;80.20;;;;;;5076058;28;20236;-55
2022/12/15 03:12:50;;;;;;;16.90;9.87;;;-3.20;99.90;;;;;;5076956;28;20218;-55
2022/12/15 03:15:18;;;;;;;18.43;10.63;;;-3.10;1.00;;;;;;5075403;28;20815;-55
2022/12/15 03:17:45;;;;;;;20.30;11.00;;;-2.80;99.90;;;;;;5075862;28;20245;-54
2022/12/15 03:20:12;;;;;;;18.20;10.77;;;-3.00;99.90;;;;;;5076153;28;20202;-55
2022/12/15 03:22:39;;;;;;;19.23;10.60;;;-2.90;99.90;;;;;;5077593;28;20203;-56
2022/12/15 03:25:06;;;;;;;20.97;10.17;;;-3.10;99.90;;;;;;5072813;28;20516;-56
2022/12/15 03:27:34;;;;;;;20.23;11.07;;;-3.20;99.90;;;;;;5071148;28;20556;-55
2022/12/15 03:30:01;;;;;;;19.87;11.03;;;-3.30;99.90;;;;;;5073091;28;20226;-56
2022/12/15 03:32:28;;;;;;;21.50;11.03;;;-3.20;1.00;;;;;;5074212;28;20194;-56
2022/12/15 03:34:55;;;;;;;16.83;10.13;;;-3.30;1.00;;;;;;5075740;28;20294;-55
2022/12/15 03:37:22;;;;;;;21.03;12.30;;;-3.50;1.00;;;;;;5075828;28;20210;-55
2022/12/15 03:39:49;;;;;;;16.50;10.27;;;-3.50;1.00;;;;;;5075444;28;20211;-56
2022/12/15 03:42:47;;;;;;;20.07;11.10;;;-3.40;1.00;;;;;;5074204;28;20205;-55
2022/12/15 03:45:03;;;;;;;20.10;9.73;;;-3.50;1.00;;;;;;5075803;28;20207;-54
2022/12/15 03:47:30;;;;;;;18.57;10.43;;;-3.50;1.00;;;;;;5074278;28;20203;-54
2022/12/15 03:49:57;;;;;;;24.00;11.20;;;-3.50;1.00;;;;;;5074837;28;20220;-55
2022/12/15 03:52:24;;;;;;;20.00;10.77;;;-3.50;1.00;;;;;;5076922;28;20205;-55
2022/12/15 03:54:51;;;;;;;17.90;10.70;;;-3.60;1.00;;;;;;5073741;28;20217;-55
2022/12/15 03:57:18;;;;;;;22.47;10.80;;;-3.70;1.00;;;;;;5074851;28;20192;-55
2022/12/15 03:59:44;;;;;;;23.30;11.07;;;-3.70;1.00;;;;;;5077621;28;20707;-55
2022/12/15 04:02:11;;;;;;;17.13;10.70;;;-3.80;1.00;;;;;;5076489;28;20204;-59
2022/12/15 04:04:38;;;;;;;19.70;11.40;;;-3.70;41.40;;;;;;5080731;28;20207;-55
2022/12/15 04:07:05;;;;;;;18.33;10.17;;;-3.50;99.90;;;;;;5082042;28;20256;-55
2022/12/15 04:09:32;;;;;;;17.90;10.97;;;-3.50;1.00;;;;;;5077443;28;20683;-56
2022/12/15 04:11:58;;;;;;;18.37;10.33;;;-3.60;1.00;;;;;;5078593;28;20228;-55
2022/12/15 04:14:25;;;;;;;20.83;11.77;;;-3.70;1.00;;;;;;5077698;28;20205;-55
2022/12/15 04:16:52;;;;;;;28.60;13.30;;;-3.80;4.10;;;;;;5079964;28;20192;-54
2022/12/15 04:22:04;;;;;;;21.77;10.87;;;-3.60;99.90;;;;;;5076292;28;20199;-55
2022/12/15 05:33:42;;;;;;;20.23;10.73;;;-3.40;1.00;;;;;;5078394;28;20205;-55
2022/12/15 05:36:09;;;;;;;23.27;11.87;;;-3.50;1.00;;;;;;5080593;28;20252;-55
2022/12/15 05:38:36;;;;;;;22.37;11.33;;;-3.30;5.50;;;;;;5080581;28;20202;-55
2022/12/15 05:41:03;;;;;;;20.07;11.60;;;-3.00;1.00;;;;;;5079097;28;20211;-55
2022/12/15 05:43:30;;;;;;;21.83;12.27;;;-2.90;1.00;;;;;;5075944;28;20278;-55
2022/12/15 05:46:02;;;;;;;19.83;11.70;;;-2.80;1.00;;;;;;5079902;28;20295;-56
2022/12/15 05:48:29;;;;;;;23.67;11.87;;;-3.10;99.90;;;;;;5079828;28;20205;-56
2022/12/15 05:50:56;;;;;;;18.97;11.47;;;-3.30;1.00;;;;;;5080739;28;20567;-56
2022/12/15 05:53:23;;;;;;;18.53;11.03;;;-3.40;1.00;;;;;;5080098;28;20202;-55
2022/12/15 05:55:50;;;;;;;18.37;11.97;;;-3.40;1.00;;;;;;5062738;28;20511;-60
2022/12/15 05:58:16;;;;;;;22.17;11.97;;;-3.50;1.00;;;;;;5077752;28;20193;-55
2022/12/15 06:00:43;;;;;;;19.23;11.97;;;-3.60;4.10;;;;;;5081219;28;20231;-56
2022/12/15 06:03:10;;;;;;;21.80;11.93;;;-3.50;99.90;;;;;;5081166;28;20231;-55
2022/12/15 06:05:38;;;;;;;18.47;12.13;;;-3.50;80.30;;;;;;5080495;28;20234;-61
2022/12/15 06:08:05;;;;;;;21.33;12.37;;;-3.40;99.90;;;;;;5078891;28;20643;-55
2022/12/15 06:10:32;;;;;;;20.53;11.37;;;-3.10;71.40;;;;;;5079848;28;20754;-57
2022/12/15 06:12:58;;;;;;;20.37;11.77;;;-3.30;1.00;;;;;;5079803;28;20299;-56
2022/12/15 06:15:25;;;;;;;17.47;11.33;;;-3.50;1.00;;;;;;5078325;28;20679;-55
2022/12/15 06:17:54;;;;;;;24.23;11.63;;;-3.70;5.00;;;;;;5079658;28;20230;-55
2022/12/15 06:20:21;;;;;;;20.27;11.33;;;-3.60;99.90;;;;;;5080447;28;20698;-55
2022/12/15 06:22:47;;;;;;;22.37;11.13;;;-3.60;99.90;;;;;;5081738;28;20195;-55
2022/12/15 06:25:16;;;;;;;21.80;11.40;;;-3.50;99.90;;;;;;5080854;28;20567;-56
2022/12/15 06:27:43;;;;;;;19.50;11.83;;;-3.60;51.60;;;;;;5079330;28;20204;-56
2022/12/15 06:30:10;;;;;;;22.33;13.23;;;-3.30;99.90;;;;;;5080704;28;20302;-57
2022/12/15 06:32:37;;;;;;;23.20;12.47;;;-3.30;1.00;;;;;;5080118;28;20222;-56
2022/12/15 06:35:04;;;;;;;20.97;12.20;;;-3.50;1.00;;;;;;5081940;28;20566;-59
2022/12/15 06:37:30;;;;;;;24.77;12.90;;;-3.40;1.00;;;;;;5078535;28;20200;-55
2022/12/15 06:39:57;;;;;;;21.10;12.03;;;-3.30;5.00;;;;;;5079387;28;20196;-56
2022/12/15 06:42:24;;;;;;;19.63;12.60;;;-3.30;1.00;;;;;;5078312;28;20659;-55
2022/12/15 06:44:51;;;;;;;22.67;12.30;;;-3.60;1.00;;;;;;5077355;28;20238;-55
2022/12/15 06:47:17;;;;;;;19.87;12.07;;;-3.60;32.10;;;;;;5077007;28;20204;-55
2022/12/15 06:49:44;;;;;;;22.23;12.03;;;-3.70;99.90;;;;;;5074710;28;21011;-55
2022/12/15 06:52:11;;;;;;;22.87;12.87;;;-3.40;99.90;;;;;;5072760;28;20239;-54
2022/12/15 06:54:38;;;;;;;19.93;11.07;;;-3.20;22.90;;;;;;5073119;28;20298;-55
2022/12/15 06:57:05;;;;;;;19.47;12.23;;;-3.30;1.00;;;;;;5073091;28;20648;-65
2022/12/15 06:59:32;;;;;;;25.97;12.90;;;-3.60;1.00;;;;;;5077844;28;20313;-55
2022/12/15 07:01:59;;;;;;;22.20;12.27;;;-3.60;1.00;;;;;;5068766;28;20286;-54
2022/12/15 07:04:26;;;;;;;26.40;12.70;;;-3.50;30.70;;;;;;5076400;28;20217;-55
2022/12/15 07:06:53;;;;;;;24.70;12.73;;;-3.50;1.00;;;;;;5071190;28;20207;-55
2022/12/15 07:09:20;;;;;;;20.90;12.10;;;-3.50;69.00;;;;;;5075544;28;20283;-55
2022/12/15 07:11:50;;;;;;;26.13;13.27;;;-3.50;15.50;;;;;;5074265;28;20238;-55
2022/12/15 07:14:16;;;;;;;18.53;12.43;;;-3.50;1.00;;;;;;5075421;28;20292;-55
2022/12/15 07:16:44;;;;;;;23.77;13.90;;;-3.40;99.90;;;;;;5077371;28;20664;-55
2022/12/15 07:19:12;;;;;;;26.70;14.50;;;-3.20;30.20;;;;;;5078929;28;20196;-55
2022/12/15 07:21:39;;;;;;;20.80;12.93;;;-3.20;1.00;;;;;;5074370;28;20234;-55
2022/12/15 07:24:10;;;;;;;21.80;12.70;;;-3.30;1.00;;;;;;5076953;28;20612;-55
2022/12/15 07:26:37;;;;;;;21.13;12.53;;;-3.30;1.00;;;;;;5074989;28;20757;-56
2022/12/15 07:29:04;;;;;;;20.80;12.83;;;-3.20;1.00;;;;;;5073887;28;20203;-56
2022/12/15 07:31:31;;;;;;;26.00;13.23;;;-3.20;1.00;;;;;;5076389;28;20292;-56
2022/12/15 07:33:58;;;;;;;23.07;12.63;;;-3.40;1.00;;;;;;5074014;28;20219;-55
2022/12/15 07:36:26;;;;;;;20.60;13.43;;;-3.70;1.00;;;;;;4711749;28;10000422;-55
2022/12/15 07:38:59;;;;;;;18.87;11.40;;;-3.80;1.00;;;;;;5063775;28;20255;-54
2022/12/15 07:41:26;;;;;;;26.07;13.37;;;-3.80;99.90;;;;;;5071387;28;20207;-59
2022/12/15 07:43:53;;;;;;;22.07;12.40;;;-3.70;99.90;;;;;;5071068;28;20211;-54
2022/12/15 07:46:20;;;;;;;23.30;13.40;;;-3.80;32.60;;;;;;5074301;28;20289;-54
2022/12/15 07:48:47;;;;;;;23.43;12.97;;;-3.80;99.90;;;;;;5071335;28;20769;-55
2022/12/15 07:51:18;;;;;;;24.67;14.47;;;-3.70;99.90;;;;;;5077297;28;20223;-55
2022/12/15 07:53:48;;;;;;;21.83;12.97;;;-3.60;99.90;;;;;;5076259;28;20295;-54
2022/12/15 07:56:16;;;;;;;22.60;12.80;;;-3.40;99.90;;;;;;5082684;28;20203;-56
2022/12/15 07:58:43;;;;;;;23.97;14.07;;;-3.40;1.00;;;;;;5069972;28;20210;-55
2022/12/15 08:01:12;;;;;;;26.80;14.47;;;-3.40;1.00;;;;;;5053868;28;21698;-55
2022/12/15 08:03:39;;;;;;;27.67;15.23;;;-3.30;1.00;;;;;;5043041;28;22255;-55
2022/12/15 08:06:09;;;;;;;23.27;13.63;;;-3.20;1.00;;;;;;5066458;28;21951;-55
2022/12/15 08:08:36;;;;;;;21.67;13.10;;;-3.30;1.00;;;;;;5075311;28;20203;-55
2022/12/15 08:11:08;;;;;;;25.57;13.87;;;-3.40;1.00;;;;;;5079467;28;20215;-55
2022/12/15 08:13:36;;;;;;;23.03;14.13;;;-3.40;1.00;;;;;;5075366;28;20192;-54
2022/12/15 08:16:23;;;;;;;26.97;14.93;;;-3.50;1.00;;;;;;5079187;28;20195;-55
2022/12/15 08:18:49;;;;;;;25.50;14.53;;;-3.60;1.00;;;;;;5074236;28;20207;-55
2022/12/15 08:21:16;;;;;;;25.57;14.00;;;-3.70;1.00;;;;;;5074355;28;20512;-55
2022/12/15 08:23:43;;;;;;;23.20;13.30;;;-3.60;99.90;;;;;;5077888;28;20303;-55
2022/12/15 08:26:14;;;;;;;27.10;15.03;;;-3.50;86.60;;;;;;5072088;28;20540;-55
2022/12/15 08:28:41;;;;;;;24.77;14.87;;;-3.20;28.40;;;;;;5074417;28;20226;-55
2022/12/15 08:31:11;;;;;;;30.57;16.27;;;-3.20;1.00;;;;;;5075456;28;20220;-55
2022/12/15 08:33:38;;;;;;;29.00;15.30;;;-3.00;1.00;;;;;;5079576;28;20282;-55
2022/12/15 08:36:07;;;;;;;24.90;14.50;;;-2.70;1.00;;;;;;5078496;28;20286;-55
2022/12/15 08:38:37;;;;;;;25.00;15.93;;;-2.80;1.00;;;;;;5078796;28;20235;-60
2022/12/15 08:41:19;;;;;;;22.47;14.37;;;-2.70;99.90;;;;;;5078521;28;20212;-55
2022/12/15 08:43:47;;;;;;;24.10;14.60;;;-2.40;99.90;;;;;;5077640;28;20304;-55
2022/12/15 08:46:21;;;;;;;25.83;14.97;;;-2.30;99.90;;;;;;5080562;28;20247;-56
2022/12/15 08:48:48;;;;;;;23.60;14.67;;;-2.30;1.00;;;;;;5078882;28;21091;-55
2022/12/15 08:51:16;;;;;;;28.07;15.20;;;-2.30;99.90;;;;;;5080005;28;20616;-56
2022/12/15 08:53:43;;;;;;;25.70;15.37;;;-2.40;99.90;;;;;;5077694;28;20207;-55
2022/12/15 08:56:14;;;;;;;27.93;16.73;;;-2.40;99.90;;;;;;5076580;28;20202;-55
2022/12/15 08:58:41;;;;;;;24.93;15.27;;;-2.60;99.90;;;;;;5073470;28;20193;-61
2022/12/15 09:01:14;;;;;;;28.30;16.30;;;-2.60;1.00;;;;;;5077689;28;20268;-55
2022/12/15 09:03:48;;;;;;;31.87;15.80;;;-2.20;1.00;;;;;;5067070;28;20204;-56
2022/12/15 09:06:19;;;;;;;24.60;14.57;;;-2.00;99.90;;;;;;5076511;28;20893;-55
2022/12/15 09:08:46;;;;;;;24.67;16.00;;;-2.00;99.90;;;;;;5062267;28;20242;-55
2022/12/15 09:11:16;;;;;;;27.70;16.03;;;-2.00;99.90;;;;;;5077931;28;20611;-55
2022/12/15 09:13:43;;;;;;;28.70;17.00;;;-1.90;99.90;;;;;;5078912;28;20539;-55
2022/12/15 09:16:13;;;;;;;28.57;16.27;;;-2.10;99.90;;;;;;5080508;28;20651;-55
2022/12/15 09:18:45;;;;;;;23.47;15.13;;;-2.10;99.90;;;;;;5077576;28;20283;-56
2022/12/15 09:21:13;;;;;;;25.10;15.57;;;-1.80;99.90;;;;;;5073245;28;20215;-56
2022/12/15 09:23:41;;;;;;;31.07;16.63;;;-1.60;99.90;;;;;;5060546;28;20270;-55
2022/12/15 09:26:15;;;;;;;36.47;16.87;;;-1.60;19.80;;;;;;5079378;28;20765;-55
2022/12/15 09:28:42;;;;;;;26.10;14.67;;;-1.50;44.00;;;;;;5076328;28;20238;-55
2022/12/15 09:31:15;;;;;;;32.57;16.07;;;-1.50;1.00;;;;;;5078367;28;20286;-56
2022/12/15 09:33:43;;;;;;;24.03;16.43;;;-1.50;58.70;;;;;;5078189;28;20935;-57
2022/12/15 09:36:11;;;;;;;29.20;16.67;;;-1.20;99.90;;;;;;5079906;28;20220;-55
2022/12/15 09:38:40;;;;;;;26.17;15.60;;;-1.10;15.70;;;;;;5076268;28;20207;-56
2022/12/15 09:41:28;;;;;;;28.50;16.23;;;-0.80;1.00;;;;;;5080727;28;20212;-56
2022/12/15 09:44:12;;;;;;;25.53;15.60;;;-0.40;1.00;;;;;;5077674;28;20201;-55
2022/12/15 09:47:04;;;;;;;28.90;15.83;;;-0.40;1.00;;;;;;5079006;28;20296;-55
2022/12/15 09:49:54;;;;;;;23.67;14.67;;;-0.40;1.00;;;;;;5078214;28;20618;-55
2022/12/15 09:52:21;;;;;;;25.03;16.70;;;-0.30;1.00;;;;;;5077185;28;20390;-55
2022/12/15 09:54:48;;;;;;;27.70;16.37;;;-0.40;1.00;;;;;;5077737;28;20633;-55
2022/12/15 09:57:27;;;;;;;24.80;16.77;;;-0.10;1.00;;;;;;5077388;28;20257;-56
2022/12/15 10:00:01;;;;;;;26.10;15.17;;;0.30;1.00;;;;;;5079357;28;20209;-54
2022/12/15 10:02:40;;;;;;;23.87;15.50;;;0.40;1.00;;;;;;5074850;28;20229;-55
2022/12/15 10:05:33;;;;;;;30.47;16.13;;;0.20;1.00;;;;;;5080142;28;20223;-57
2022/12/15 10:08:22;;;;;;;26.07;16.20;;;0.10;1.00;;;;;;5073218;28;20660;-56
2022/12/15 10:11:11;;;;;;;26.60;16.47;;;0.50;1.00;;;;;;5076742;28;20245;-55
2022/12/15 10:14:12;;;;;;;26.27;15.53;;;0.60;1.00;;;;;;5076118;28;20206;-55
2022/12/15 10:16:54;;;;;;;24.17;14.77;;;0.40;1.00;;;;;;5066119;28;20202;-56
2022/12/15 10:19:42;;;;;;;24.67;16.13;;;-0.10;1.00;;;;;;5059547;28;20200;-55
2022/12/15 10:22:18;;;;;;;26.37;15.83;;;-0.10;1.00;;;;;;5076604;28;20203;-56
2022/12/15 10:24:45;;;;;;;26.90;16.93;;;0.20;1.00;;;;;;5078422;28;20219;-56
2022/12/15 10:27:32;;;;;;;24.87;15.83;;;0.20;1.00;;;;;;5075666;28;20210;-56
2022/12/15 10:30:04;;;;;;;30.33;17.00;;;0.10;1.00;;;;;;5077086;28;20206;-55
2022/12/15 10:32:43;;;;;;;28.30;16.93;;;0.10;1.00;;;;;;5076186;28;20642;-55
2022/12/15 10:35:23;;;;;;;26.37;15.83;;;-0.10;39.40;;;;;;5075486;28;20196;-55
2022/12/15 10:37:50;;;;;;;26.13;16.17;;;0.20;27.00;;;;;;5075609;28;20930;-57
2022/12/15 10:40:18;;;;;;;28.37;15.50;;;0.30;1.00;;;;;;5061475;28;20746;-55
2022/12/15 10:42:49;;;;;;;26.07;16.07;;;0.10;1.00;;;;;;5077050;28;20202;-56
2022/12/15 10:45:36;;;;;;;25.50;15.97;;;0.10;1.00;;;;;;5077942;28;20206;-55
2022/12/15 10:48:05;;;;;;;26.70;16.53;;;0.10;99.90;;;;;;5059314;28;20203;-56
2022/12/15 10:50:34;;;;;;;32.63;16.93;;;0.20;99.90;;;;;;5075517;28;20263;-55
2022/12/15 10:53:07;;;;;;;24.00;15.97;;;0.00;99.90;;;;;;5072145;28;20262;-56
2022/12/15 10:55:40;;;;;;;27.80;16.57;;;0.10;99.90;;;;;;5077656;28;20669;-56
2022/12/15 10:58:25;;;;;;;26.93;15.70;;;0.30;92.80;;;;;;5075806;28;20208;-56
2022/12/15 11:01:07;;;;;;;27.03;16.03;;;0.40;76.80;;;;;;5062072;28;20435;-56
2022/12/15 11:03:37;;;;;;;24.90;16.30;;;0.40;98.40;;;;;;5057162;28;20199;-55
2022/12/15 11:06:35;;;;;;;29.77;17.53;;;0.60;99.90;;;;;;5072786;28;20283;-56
2022/12/15 11:09:27;;;;;;;27.37;16.03;;;0.90;78.80;;;;;;5070930;28;20203;-55
2022/12/15 11:14:48;;;;;;;28.37;15.77;;;0.90;23.20;;;;;;5068590;28;20241;-57
2022/12/15 11:17:21;;;;;;;30.73;17.43;;;0.80;71.30;;;;;;5071314;28;20291;-56
2022/12/15 11:20:01;;;;;;;28.33;16.60;;;0.90;36.60;;;;;;5064390;28;20209;-55
2022/12/15 11:22:50;;;;;;;24.67;16.60;;;0.90;99.90;;;;;;5070737;28;20289;-55
2022/12/15 11:25:35;;;;;;;29.47;16.97;;;1.20;48.70;;;;;;5066360;28;20652;-54
2022/12/15 11:28:10;;;;;;;29.50;16.17;;;1.20;1.00;;;;;;5069323;28;20233;-56
2022/12/15 11:30:54;;;;;;;22.30;15.83;;;1.20;1.00;;;;;;5077175;28;20215;-56
2022/12/15 11:33:21;;;;;;;29.07;17.23;;;1.30;1.00;;;;;;5070667;28;20233;-55
2022/12/15 11:36:12;;;;;;;29.77;16.80;;;1.30;1.00;;;;;;5071613;28;20202;-55
2022/12/15 11:39:17;;;;;;;23.83;15.73;;;1.40;1.00;;;;;;5072423;28;20221;-55
2022/12/15 11:42:06;;;;;;;28.17;16.87;;;1.50;1.00;;;;;;5017978;28;20223;-56
2022/12/15 11:44:50;;;;;;;24.43;14.90;;;1.90;1.00;;;;;;5022246;28;20240;-56
2022/12/15 11:47:49;;;;;;;24.07;15.53;;;2.30;1.00;;;;;;5018481;28;20216;-57
2022/12/15 11:50:48;;;;;;;27.10;16.10;;;2.60;1.00;;;;;;5019640;28;20253;-56
2022/12/15 11:53:58;;;;;;;28.13;16.20;;;2.40;1.00;;;;;;5029003;28;20608;-62
2022/12/15 11:57:18;;;;;;;26.13;15.77;;;2.50;1.00;;;;;;5020848;28;20319;-63
2022/12/15 12:00:00;;;;;;;24.50;15.57;;;2.40;1.00;;;;;;5000830;28;20316;-55
2022/12/15 12:02:46;;;;;;;25.13;15.33;;;2.60;1.00;;;;;;5038403;28;20255;-55
2022/12/15 12:05:19;;;;;;;28.27;14.90;;;2.20;1.00;;;;;;5039032;28;20203;-56
2022/12/15 12:07:56;;;;;;;24.83;16.67;;;2.20;1.00;;;;;;5029687;28;20556;-55
2022/12/15 12:10:42;;;;;;;29.03;17.27;;;2.20;1.00;;;;;;5039321;28;20332;-56
2022/12/15 12:13:46;;;;;;;25.13;16.77;;;2.20;1.00;;;;;;5052759;28;20226;-57
2022/12/15 12:16:24;;;;;;;24.00;15.70;;;2.30;1.00;;;;;;5067944;28;20214;-56
2022/12/15 12:19:10;;;;;;;24.00;14.80;;;2.50;1.00;;;;;;5072200;28;20194;-56
2022/12/15 12:21:45;;;;;;;30.33;16.43;;;2.60;1.00;;;;;;5070073;28;20194;-56
2022/12/15 12:24:35;;;;;;;32.83;16.17;;;2.60;1.00;;;;;;5073866;28;20202;-55
2022/12/15 12:27:22;;;;;;;23.17;15.57;;;2.60;1.00;;;;;;5074521;28;20199;-56
2022/12/15 12:29:54;;;;;;;25.57;15.07;;;2.50;1.00;;;;;;5075319;28;20202;-56
2022/12/15 12:32:42;;;;;;;24.30;14.43;;;2.20;1.00;;;;;;5073456;28;20222;-55
2022/12/15 12:35:15;;;;;;;23.00;14.67;;;2.30;1.00;;;;;;5074637;28;20284;-56
2022/12/15 12:38:01;;;;;;;28.50;15.57;;;2.40;1.00;;;;;;5074835;28;20222;-56
2022/12/15 12:40:40;;;;;;;23.07;14.50;;;2.40;1.00;;;;;;5078508;28;20290;-57
2022/12/15 12:43:09;;;;;;;24.73;15.27;;;2.50;1.00;;;;;;5073492;28;20194;-57
2022/12/15 12:45:54;;;;;;;24.87;15.60;;;2.50;1.00;;;;;;5078499;28;21084;-61
2022/12/15 12:48:30;;;;;;;25.43;15.53;;;2.60;1.00;;;;;;5069201;28;20214;-56
2022/12/15 12:51:25;;;;;;;22.97;15.57;;;2.80;1.00;;;;;;5080436;28;20199;-54
2022/12/15 12:53:53;;;;;;;25.80;14.87;;;3.00;1.00;;;;;;5061289;28;20311;-53
2022/12/15 12:56:44;;;;;;;25.23;15.27;;;2.90;1.00;;;;;;5076037;28;20655;-56
2022/12/15 12:59:29;;;;;;;23.73;15.27;;;3.00;1.00;;;;;;5061200;28;20209;-54
2022/12/15 13:02:14;;;;;;;21.63;14.77;;;2.90;1.00;;;;;;5069362;28;20318;-55
2022/12/15 13:04:48;;;;;;;25.50;15.73;;;3.00;1.00;;;;;;5076361;28;20671;-62
2022/12/15 13:08:16;;;;;;;26.27;16.17;;;3.20;1.00;;;;;;5063265;28;20225;-60
2022/12/15 13:10:45;;;;;;;27.70;14.33;;;3.30;1.00;;;;;;5044273;28;20228;-53
2022/12/15 13:13:28;;;;;;;24.53;14.87;;;3.20;1.00;;;;;;5069139;28;20252;-51
2022/12/15 13:16:08;;;;;;;24.00;15.27;;;3.30;1.00;;;;;;5078053;28;20191;-54
2022/12/15 13:19:05;;;;;;;22.33;15.47;;;3.10;1.00;;;;;;5073326;28;20217;-55
2022/12/15 13:21:44;;;;;;;25.47;15.33;;;2.90;1.00;;;;;;5063005;28;20198;-54
2022/12/15 13:24:32;;;;;;;20.47;13.87;;;2.90;1.00;;;;;;5075717;28;20248;-53
2022/12/15 13:27:08;;;;;;;21.10;14.83;;;2.70;1.00;;;;;;5073594;28;20270;-54
2022/12/15 13:29:52;;;;;;;25.13;14.73;;;2.70;1.00;;;;;;5076648;28;20294;-54
2022/12/15 13:32:45;;;;;;;27.23;15.07;;;2.60;1.00;;;;;;5075805;28;20253;-55
2022/12/15 13:35:13;;;;;;;23.10;14.73;;;2.70;1.00;;;;;;5077371;28;20232;-64
2022/12/15 13:37:49;;;;;;;21.67;14.20;;;2.70;1.00;;;;;;5072720;28;20922;-52
2022/12/15 13:40:37;;;;;;;26.10;16.03;;;2.90;1.00;;;;;;5075207;28;20254;-53
2022/12/15 13:43:03;;;;;;;22.63;14.93;;;2.80;1.00;;;;;;5064188;28;20278;-57
2022/12/15 13:45:36;;;;;;;25.77;15.37;;;2.80;1.00;;;;;;5074976;28;20907;-53
2022/12/15 13:48:38;;;;;;;25.80;15.13;;;2.80;1.00;;;;;;5076580;28;20198;-56
2022/12/15 13:51:38;;;;;;;24.70;15.20;;;2.90;1.00;;;;;;5075641;28;20202;-53
2022/12/15 13:54:17;;;;;;;24.70;15.60;;;2.70;1.00;;;;;;5065169;28;20237;-53
2022/12/15 13:57:00;;;;;;;24.83;14.50;;;3.00;1.00;;;;;;5074202;28;20502;-58
2022/12/15 13:59:38;;;;;;;25.83;15.27;;;2.90;1.00;;;;;;5076441;28;20203;-53
2022/12/15 14:02:28;;;;;;;24.63;14.83;;;2.90;1.00;;;;;;5072359;28;20307;-54
2022/12/15 14:05:17;;;;;;;24.20;15.20;;;3.00;1.00;;;;;;5073039;28;20199;-57
2022/12/15 14:07:45;;;;;;;23.63;16.03;;;3.20;1.00;;;;;;5075138;28;20198;-53
2022/12/15 14:10:24;;;;;;;27.70;15.47;;;3.40;1.00;;;;;;5074651;28;20577;-54
2022/12/15 14:12:54;;;;;;;25.00;15.80;;;3.50;1.00;;;;;;5074484;28;20214;-59
2022/12/15 14:15:28;;;;;;;23.60;15.90;;;3.40;99.90;;;;;;5075545;28;20198;-54
2022/12/15 14:17:56;;;;;;;25.47;14.70;;;3.20;1.00;;;;;;5071956;28;20718;-52
2022/12/15 14:20:39;;;;;;;25.77;15.13;;;3.30;1.00;;;;;;5077009;28;20270;-54
2022/12/15 14:23:21;;;;;;;23.27;14.40;;;3.20;1.00;;;;;;5075034;28;20226;-54
2022/12/15 14:26:06;;;;;;;23.13;14.57;;;3.30;1.00;;;;;;5073559;28;20247;-53
2022/12/15 14:28:35;;;;;;;22.77;14.90;;;3.30;1.00;;;;;;5053785;28;20211;-53
2022/12/15 14:31:13;;;;;;;27.13;15.17;;;3.20;1.00;;;;;;5076780;28;20206;-53
2022/12/15 14:33:42;;;;;;;26.63;14.83;;;3.10;1.00;;;;;;5072185;28;20231;-55
2022/12/15 14:36:11;;;;;;;25.97;15.70;;;3.10;1.00;;;;;;5074752;28;20205;-57
2022/12/15 14:38:42;;;;;;;19.60;14.63;;;2.90;1.00;;;;;;5066255;28;20855;-53
2022/12/15 14:41:22;;;;;;;21.07;15.00;;;2.90;1.00;;;;;;5075096;28;20890;-52
2022/12/15 14:43:51;;;;;;;26.00;15.73;;;2.90;1.00;;;;;;5068386;28;20663;-55
2022/12/15 14:46:38;;;;;;;23.93;16.20;;;2.80;1.00;;;;;;5073938;28;20206;-53
2022/12/15 14:49:07;;;;;;;22.97;14.40;;;2.80;1.00;;;;;;5072186;28;20645;-55
2022/12/15 14:51:48;;;;;;;22.30;15.57;;;3.00;1.00;;;;;;5069090;28;20297;-54
2022/12/15 14:54:27;;;;;;;24.60;16.30;;;3.00;1.00;;;;;;5057737;28;20581;-52
2022/12/15 14:57:11;;;;;;;21.17;15.07;;;3.00;1.00;;;;;;5072172;28;20304;-55
2022/12/15 14:59:41;;;;;;;23.40;15.83;;;2.90;1.00;;;;;;5065942;28;20199;-53
2022/12/15 15:02:23;;;;;;;21.43;14.40;;;2.90;1.00;;;;;;5055748;28;20713;-52
2022/12/15 15:04:58;;;;;;;25.00;15.00;;;2.90;1.00;;;;;;5071760;28;20198;-52
2022/12/15 15:07:30;;;;;;;26.10;15.43;;;2.70;1.00;;;;;;5070305;28;20553;-55
2022/12/15 15:09:57;;;;;;;23.47;15.13;;;2.70;1.00;;;;;;5073656;28;20731;-51
2022/12/15 15:12:40;;;;;;;24.40;15.13;;;2.70;1.00;;;;;;5072351;28;20238;-51
2022/12/15 15:15:10;;;;;;;26.70;16.37;;;2.70;1.00;;;;;;5045826;28;20225;-54
2022/12/15 15:17:50;;;;;;;26.00;14.67;;;2.50;1.00;;;;;;5069334;28;20198;-52
2022/12/15 15:20:30;;;;;;;26.20;16.20;;;2.40;1.00;;;;;;5070056;28;20195;-51
2022/12/15 15:23:06;;;;;;;24.40;16.47;;;2.30;1.00;;;;;;5070297;28;20245;-53
2022/12/15 15:25:32;;;;;;;27.67;15.70;;;2.20;1.00;;;;;;5065908;28;20230;-51
2022/12/15 15:28:33;;;;;;;23.93;15.80;;;2.20;1.00;;;;;;5070351;28;20302;-50
2022/12/15 15:31:21;;;;;;;23.47;15.23;;;2.30;1.00;;;;;;5072607;28;20247;-52
2022/12/15 15:33:48;;;;;;;25.33;16.57;;;2.30;1.00;;;;;;5070113;28;20249;-53
2022/12/15 15:36:14;;;;;;;24.50;14.70;;;2.30;1.00;;;;;;5071747;28;20611;-52
2022/12/15 15:38:45;;;;;;;24.80;16.63;;;2.20;1.00;;;;;;5072740;28;20225;-54
2022/12/15 15:41:22;;;;;;;25.93;16.33;;;2.30;1.00;;;;;;5073814;28;20978;-53